Time;durP1;ratioP1;P1;durP2;ratioP2;P2;SDS_P1;SDS_P2;PMS_P1;PMS_P2;Temp;Humidity;BMP_temperature;BMP_pressure;BME280_temperature;BME280_humidity;BME280_pressure;Samples;Min_cycle;Max_cycle;Signal;HPM_P1;HPM_P2
2023/10/17 00:01:24;;;;;;;4.30;3.00;;;7.90;99.90;;;;;;5057474;28;20448;-61
2023/10/17 00:03:54;;;;;;;16.70;4.07;;;7.90;99.90;;;;;;5057303;28;20419;-58
2023/10/17 00:06:31;;;;;;;4.53;2.60;;;7.90;99.90;;;;;;5057418;28;20464;-58
2023/10/17 00:09:05;;;;;;;8.30;3.57;;;7.90;99.90;;;;;;5056980;28;20423;-60
2023/10/17 00:11:47;;;;;;;4.63;3.80;;;7.90;99.90;;;;;;5056904;28;20432;-60
2023/10/17 00:14:17;;;;;;;7.03;3.53;;;7.90;99.90;;;;;;5057061;28;20444;-59
2023/10/17 00:16:47;;;;;;;3.83;2.53;;;7.90;99.90;;;;;;5056714;28;20455;-59
2023/10/17 00:19:19;;;;;;;4.83;3.47;;;8.00;99.90;;;;;;5056916;28;20512;-62
2023/10/17 00:21:49;;;;;;;6.07;3.53;;;8.00;99.90;;;;;;5057077;28;20452;-63
2023/10/17 00:24:19;;;;;;;4.20;2.80;;;8.00;99.90;;;;;;5057071;28;20492;-55
2023/10/17 00:26:48;;;;;;;3.87;2.87;;;8.00;99.90;;;;;;5056998;28;20467;-60
2023/10/17 00:29:19;;;;;;;5.63;3.07;;;8.00;99.90;;;;;;5056730;28;20452;-65
2023/10/17 00:31:47;;;;;;;4.20;2.87;;;8.00;99.90;;;;;;5056810;28;20455;-56
2023/10/17 00:34:14;;;;;;;4.07;3.40;;;8.10;99.90;;;;;;5056788;28;20423;-56
2023/10/17 00:36:48;;;;;;;4.67;3.17;;;8.10;99.90;;;;;;5056600;28;20444;-60
2023/10/17 00:39:17;;;;;;;5.00;3.13;;;8.10;99.90;;;;;;5056414;28;20495;-59
2023/10/17 00:41:50;;;;;;;5.53;3.10;;;8.00;99.90;;;;;;5056773;28;20456;-58
2023/10/17 00:44:27;;;;;;;6.40;3.10;;;8.00;99.90;;;;;;5056534;28;20420;-65
2023/10/17 00:46:55;;;;;;;5.10;3.47;;;7.90;99.90;;;;;;5056552;28;20451;-58
2023/10/17 00:49:23;;;;;;;3.47;2.73;;;8.00;99.90;;;;;;5056284;28;20435;-60
2023/10/17 00:51:56;;;;;;;4.10;3.03;;;8.00;99.90;;;;;;5056503;28;20444;-64
2023/10/17 00:54:29;;;;;;;6.33;3.13;;;8.00;99.90;;;;;;5056955;28;20441;-58
2023/10/17 00:57:05;;;;;;;3.30;2.60;;;8.00;99.90;;;;;;5056903;28;20453;-54
2023/10/17 00:59:36;;;;;;;3.40;3.03;;;8.10;99.90;;;;;;5056976;28;20455;-63
2023/10/17 01:02:06;;;;;;;12.87;4.13;;;8.10;99.90;;;;;;5060015;28;20476;-65
2023/10/17 01:04:41;;;;;;;7.53;3.40;;;8.10;99.90;;;;;;5040552;28;20457;-60
2023/10/17 01:07:11;;;;;;;2.93;2.63;;;8.10;99.90;;;;;;5049009;28;20471;-63
2023/10/17 01:09:38;;;;;;;4.87;3.20;;;8.00;99.90;;;;;;5060502;28;20444;-62
2023/10/17 01:12:10;;;;;;;10.53;3.80;;;8.00;99.90;;;;;;5059899;28;20475;-62
2023/10/17 01:14:37;;;;;;;9.87;4.00;;;8.00;99.90;;;;;;5059973;28;20443;-58
2023/10/17 01:17:07;;;;;;;5.70;3.40;;;7.90;99.90;;;;;;5060356;28;20432;-65
2023/10/17 01:19:35;;;;;;;7.00;3.50;;;7.90;99.90;;;;;;5060164;28;20456;-56
2023/10/17 01:22:03;;;;;;;8.50;4.07;;;7.90;99.90;;;;;;5060240;28;20483;-59
2023/10/17 01:24:32;;;;;;;5.20;3.80;;;7.90;99.90;;;;;;5040712;28;20437;-61
2023/10/17 01:27:06;;;;;;;6.83;4.30;;;7.90;99.90;;;;;;5040308;28;20464;-62
2023/10/17 01:29:34;;;;;;;7.97;4.50;;;7.90;99.90;;;;;;5052564;28;20475;-55
2023/10/17 01:32:02;;;;;;;6.90;4.80;;;7.80;99.90;;;;;;5060345;28;20474;-65
2023/10/17 01:34:33;;;;;;;7.20;4.53;;;7.90;99.90;;;;;;5059984;28;20475;-64
2023/10/17 01:37:01;;;;;;;9.13;5.00;;;7.90;99.90;;;;;;5059973;28;20437;-63
2023/10/17 01:39:29;;;;;;;9.17;4.53;;;7.90;99.90;;;;;;5059484;28;20527;-63
2023/10/17 01:41:57;;;;;;;9.93;5.23;;;7.90;99.90;;;;;;5057670;28;20507;-63
2023/10/17 01:44:24;;;;;;;8.67;5.47;;;7.90;99.90;;;;;;5059596;28;20499;-60
2023/10/17 01:46:52;;;;;;;6.43;4.80;;;7.90;99.90;;;;;;5059749;28;20452;-57
2023/10/17 01:49:19;;;;;;;7.60;4.47;;;7.80;99.90;;;;;;5059521;28;20454;-57
2023/10/17 01:51:48;;;;;;;7.07;5.67;;;7.80;99.90;;;;;;5059922;28;20478;-59
2023/10/17 01:54:17;;;;;;;8.40;5.10;;;7.80;99.90;;;;;;5059835;28;20436;-60
2023/10/17 01:56:50;;;;;;;9.30;5.27;;;7.80;99.90;;;;;;5059843;28;20436;-59
2023/10/17 01:59:25;;;;;;;9.60;4.40;;;7.80;99.90;;;;;;5060096;28;20483;-60
2023/10/17 02:01:57;;;;;;;7.87;4.83;;;7.80;99.90;;;;;;5059721;28;20451;-63
2023/10/17 02:04:24;;;;;;;7.30;4.77;;;7.80;99.90;;;;;;5059170;28;20479;-65
2023/10/17 02:06:55;;;;;;;8.00;5.20;;;7.80;99.90;;;;;;5059624;28;20460;-58
2023/10/17 02:09:44;;;;;;;7.93;4.90;;;7.80;99.90;;;;;;5059488;28;20433;-61
2023/10/17 02:12:12;;;;;;;10.40;4.80;;;7.80;99.90;;;;;;5057476;28;20436;-60
2023/10/17 02:14:42;;;;;;;9.83;5.87;;;7.80;99.90;;;;;;5058971;28;20444;-58
2023/10/17 02:17:11;;;;;;;9.30;4.17;;;7.80;99.90;;;;;;5059013;28;20468;-58
2023/10/17 02:19:38;;;;;;;12.43;4.47;;;7.80;99.90;;;;;;5059340;28;20432;-67
2023/10/17 02:22:09;;;;;;;7.47;4.27;;;7.80;99.90;;;;;;5059170;28;20484;-61
2023/10/17 02:24:37;;;;;;;5.80;4.50;;;7.90;99.90;;;;;;5059373;28;20507;-61
2023/10/17 02:27:09;;;;;;;8.13;4.40;;;7.90;99.90;;;;;;5058950;28;20452;-56
2023/10/17 02:29:39;;;;;;;6.70;4.33;;;7.90;99.90;;;;;;5058532;28;20472;-62
2023/10/17 02:32:12;;;;;;;8.57;4.70;;;7.90;99.90;;;;;;5058517;28;20448;-64
2023/10/17 02:34:43;;;;;;;7.73;5.13;;;7.90;99.90;;;;;;5058603;28;20440;-63
2023/10/17 02:37:13;;;;;;;8.60;5.70;;;7.90;99.90;;;;;;5058089;28;20424;-60
2023/10/17 02:39:44;;;;;;;7.83;4.73;;;7.90;99.90;;;;;;5058263;28;20429;-66
2023/10/17 02:42:15;;;;;;;8.07;4.53;;;8.00;99.90;;;;;;5058342;28;20476;-60
2023/10/17 02:44:45;;;;;;;6.87;4.73;;;8.00;99.90;;;;;;5058560;28;20436;-65
2023/10/17 02:47:15;;;;;;;4.23;3.83;;;8.00;99.90;;;;;;5058153;28;20486;-66
2023/10/17 02:49:46;;;;;;;8.00;4.93;;;8.00;99.90;;;;;;5058455;28;20440;-65
2023/10/17 02:52:17;;;;;;;7.27;4.70;;;8.00;99.90;;;;;;5058438;28;20436;-60
2023/10/17 02:54:56;;;;;;;5.73;3.60;;;8.00;99.90;;;;;;5058343;28;20503;-63
2023/10/17 02:57:26;;;;;;;7.87;4.53;;;8.00;99.90;;;;;;5058282;28;20507;-63
2023/10/17 02:59:56;;;;;;;5.30;3.83;;;8.00;99.90;;;;;;5058518;28;20531;-59
2023/10/17 03:02:36;;;;;;;7.60;4.23;;;8.00;99.90;;;;;;5058215;28;20531;-59
2023/10/17 03:05:11;;;;;;;5.53;3.37;;;8.00;99.90;;;;;;5058456;28;20428;-59
2023/10/17 03:07:38;;;;;;;8.33;4.17;;;8.00;99.90;;;;;;5058352;28;20479;-56
2023/10/17 03:10:05;;;;;;;4.33;3.53;;;8.00;99.90;;;;;;5058335;28;20455;-55
2023/10/17 03:12:40;;;;;;;5.70;4.10;;;8.10;99.90;;;;;;5058222;28;20482;-59
2023/10/17 03:15:22;;;;;;;5.50;3.73;;;8.10;99.90;;;;;;5058215;28;20432;-63
2023/10/17 03:17:53;;;;;;;4.20;3.50;;;8.10;99.90;;;;;;5057975;28;20516;-62
2023/10/17 03:20:22;;;;;;;7.07;3.60;;;8.20;99.90;;;;;;5058119;28;20447;-60
2023/10/17 03:22:50;;;;;;;6.00;4.47;;;8.20;99.90;;;;;;5057018;28;20468;-59
2023/10/17 03:25:20;;;;;;;5.60;3.97;;;8.20;99.90;;;;;;5057520;28;20491;-64
2023/10/17 03:27:49;;;;;;;6.37;4.10;;;8.20;99.90;;;;;;5057734;28;20432;-58
2023/10/17 03:30:19;;;;;;;4.80;4.13;;;8.20;99.90;;;;;;5057463;28;20486;-62
2023/10/17 03:33:05;;;;;;;5.30;4.03;;;8.20;99.90;;;;;;5057491;28;20452;-57
2023/10/17 03:35:36;;;;;;;5.30;4.13;;;8.20;99.90;;;;;;5058260;28;20447;-56
2023/10/17 03:38:03;;;;;;;6.30;3.93;;;8.20;99.90;;;;;;5057812;28;20516;-60
2023/10/17 03:40:40;;;;;;;5.20;3.83;;;8.20;99.90;;;;;;5057621;28;20445;-59
2023/10/17 03:43:12;;;;;;;8.67;4.70;;;8.20;99.90;;;;;;5057688;28;20478;-61
2023/10/17 03:45:52;;;;;;;4.70;4.00;;;8.30;99.90;;;;;;5057501;28;20511;-63
2023/10/17 03:48:21;;;;;;;5.40;4.03;;;8.30;99.90;;;;;;5057376;28;20467;-61
2023/10/17 03:50:58;;;;;;;4.00;3.60;;;8.30;99.90;;;;;;5057367;28;20508;-62
2023/10/17 03:53:28;;;;;;;6.73;3.20;;;8.30;99.90;;;;;;5057758;28;20476;-55
2023/10/17 03:55:55;;;;;;;7.40;4.07;;;8.30;99.90;;;;;;5057434;28;20471;-58
2023/10/17 03:58:29;;;;;;;5.70;4.30;;;8.40;99.90;;;;;;5057406;28;20451;-55
2023/10/17 04:00:58;;;;;;;5.80;3.93;;;8.40;99.90;;;;;;5057412;28;20413;-59
2023/10/17 04:03:31;;;;;;;6.20;3.40;;;8.40;99.90;;;;;;5057403;28;20440;-64
2023/10/17 04:06:17;;;;;;;12.33;5.30;;;8.40;99.90;;;;;;5057554;28;20447;-60
2023/10/17 04:08:49;;;;;;;6.07;4.50;;;8.40;99.90;;;;;;5043280;28;20482;-60
2023/10/17 04:11:19;;;;;;;6.00;3.47;;;8.40;99.90;;;;;;5057408;28;20440;-61
2023/10/17 04:13:49;;;;;;;4.90;2.90;;;8.40;99.90;;;;;;5057276;28;20431;-64
2023/10/17 04:16:21;;;;;;;5.10;3.70;;;8.40;99.90;;;;;;5057156;28;20452;-58
2023/10/17 04:18:55;;;;;;;4.87;3.80;;;8.40;99.90;;;;;;5057743;28;20444;-61
2023/10/17 04:21:28;;;;;;;6.53;4.27;;;8.50;99.90;;;;;;5057171;28;20500;-60
2023/10/17 04:23:59;;;;;;;5.33;3.53;;;8.50;99.90;;;;;;5056822;28;20451;-59
2023/10/17 04:26:28;;;;;;;4.50;3.67;;;8.50;99.90;;;;;;5057084;28;20433;-58
2023/10/17 04:29:00;;;;;;;9.37;4.27;;;8.60;99.90;;;;;;5057258;28;20675;-64
2023/10/17 04:31:31;;;;;;;6.67;3.93;;;8.60;99.90;;;;;;5057156;28;20439;-57
2023/10/17 04:34:06;;;;;;;8.20;3.80;;;8.60;99.90;;;;;;5056301;28;20460;-67
2023/10/17 04:36:37;;;;;;;11.77;4.50;;;8.60;99.90;;;;;;5056955;28;20432;-56
2023/10/17 04:39:13;;;;;;;4.63;3.23;;;8.60;99.90;;;;;;5057314;28;20495;-54
2023/10/17 04:42:04;;;;;;;5.60;3.70;;;8.50;99.90;;;;;;5057103;28;20495;-56
2023/10/17 04:44:34;;;;;;;4.47;3.50;;;8.50;99.90;;;;;;5057455;28;20436;-61
2023/10/17 04:49:50;;;;;;;6.00;3.33;;;8.40;99.90;;;;;;5057342;28;20427;-58
2023/10/17 04:52:21;;;;;;;7.17;4.30;;;8.50;99.90;;;;;;5057130;28;20456;-59
2023/10/17 04:54:48;;;;;;;6.67;4.20;;;8.50;99.90;;;;;;5056924;28;20440;-61
2023/10/17 04:57:16;;;;;;;5.00;4.30;;;8.50;99.90;;;;;;5057010;28;20440;-57
2023/10/17 04:59:55;;;;;;;7.13;4.67;;;8.60;99.90;;;;;;5057157;28;20433;-60
2023/10/17 05:02:42;;;;;;;4.10;3.70;;;8.60;99.90;;;;;;5056486;28;20488;-59
2023/10/17 05:08:17;;;;;;;6.43;3.73;;;8.60;99.90;;;;;;5057028;28;20435;-55
2023/10/17 06:17:47;;;;;;;4.43;3.97;;;9.10;99.90;;;;;;5013490;28;20437;-57
2023/10/17 06:20:16;;;;;;;5.57;3.20;;;9.10;99.90;;;;;;5004095;28;20415;-58
2023/10/17 06:28:27;;;;;;;5.77;3.27;;;9.20;99.90;;;;;;5060835;28;20482;-57
2023/10/17 06:31:34;;;;;;;5.13;4.13;;;9.30;99.90;;;;;;5058874;28;20468;-55
2023/10/17 06:34:01;;;;;;;4.40;3.33;;;9.40;99.90;;;;;;5067493;28;20435;-58
2023/10/17 06:36:28;;;;;;;6.13;3.67;;;9.40;99.90;;;;;;5064069;28;20506;-63
2023/10/17 06:38:55;;;;;;;5.00;2.83;;;9.40;99.90;;;;;;5060786;28;20455;-54
2023/10/17 06:41:27;;;;;;;4.87;3.33;;;9.50;99.90;;;;;;5070579;28;20467;-54
2023/10/17 06:43:58;;;;;;;11.27;4.03;;;9.50;99.90;;;;;;5063974;28;20443;-61
2023/10/17 06:46:29;;;;;;;6.53;3.97;;;9.60;99.90;;;;;;5064387;28;20460;-56
2023/10/17 06:49:03;;;;;;;7.03;3.53;;;9.60;99.90;;;;;;5069584;28;20454;-55
2023/10/17 06:51:30;;;;;;;6.83;3.67;;;9.70;99.90;;;;;;5060141;28;20455;-55
2023/10/17 06:54:05;;;;;;;4.40;3.10;;;9.70;99.90;;;;;;5055922;28;20434;-55
2023/10/17 06:56:38;;;;;;;7.00;5.20;;;9.80;99.90;;;;;;5052258;28;20452;-55
2023/10/17 06:59:21;;;;;;;5.77;3.87;;;9.90;99.90;;;;;;5052370;28;20461;-58
2023/10/17 07:02:03;;;;;;;10.00;3.97;;;9.90;99.90;;;;;;5064816;28;20468;-57
2023/10/17 07:04:29;;;;;;;4.33;3.60;;;9.90;99.90;;;;;;5067076;28;20440;-58
2023/10/17 07:06:56;;;;;;;5.60;3.57;;;9.90;99.90;;;;;;5071339;28;20420;-61
2023/10/17 07:09:37;;;;;;;7.47;3.77;;;9.90;99.90;;;;;;5070974;28;20467;-58
2023/10/17 07:12:13;;;;;;;8.43;4.00;;;10.00;99.90;;;;;;5069271;28;20477;-56
2023/10/17 07:14:49;;;;;;;5.20;3.67;;;10.00;99.90;;;;;;5065056;28;20421;-55
2023/10/17 07:17:25;;;;;;;10.10;4.27;;;10.00;99.90;;;;;;5065998;28;20562;-58
2023/10/17 07:19:58;;;;;;;6.93;4.17;;;10.00;99.90;;;;;;5068084;28;20449;-64
2023/10/17 07:22:26;;;;;;;6.87;3.20;;;10.10;99.90;;;;;;5066802;28;20559;-63
2023/10/17 07:25:01;;;;;;;4.77;3.40;;;10.10;99.90;;;;;;5072344;28;20435;-59
2023/10/17 07:27:33;;;;;;;5.53;3.10;;;10.10;99.90;;;;;;5057286;28;20440;-69
2023/10/17 07:30:10;;;;;;;5.27;3.40;;;10.10;99.90;;;;;;5029397;28;20470;-69
2023/10/17 07:32:45;;;;;;;9.00;3.90;;;10.10;99.90;;;;;;5037052;28;20424;-68
2023/10/17 07:35:15;;;;;;;6.40;4.20;;;10.10;99.90;;;;;;5038900;28;20460;-67
2023/10/17 07:37:53;;;;;;;6.80;4.00;;;10.10;99.90;;;;;;5034392;28;20472;-69
2023/10/17 07:40:24;;;;;;;6.10;3.73;;;10.20;99.90;;;;;;5033208;28;20472;-70
2023/10/17 07:42:55;;;;;;;6.37;3.13;;;10.20;99.90;;;;;;5029315;28;20464;-68
2023/10/17 07:45:23;;;;;;;7.67;4.73;;;10.20;99.90;;;;;;5040076;28;20467;-69
2023/10/17 07:47:54;;;;;;;6.77;3.90;;;10.30;99.90;;;;;;5041756;28;20760;-72
2023/10/17 07:50:25;;;;;;;6.37;3.83;;;10.40;99.90;;;;;;5043010;28;20442;-72
2023/10/17 07:52:59;;;;;;;5.70;3.60;;;10.40;99.90;;;;;;5045151;28;20463;-69
2023/10/17 07:55:36;;;;;;;5.03;3.80;;;10.50;99.90;;;;;;5042148;28;20487;-67
2023/10/17 07:58:07;;;;;;;5.90;3.23;;;11.10;99.90;;;;;;5034678;28;20467;-66
2023/10/17 08:00:36;;;;;;;5.87;3.77;;;11.30;99.90;;;;;;5044911;28;20935;-68
2023/10/17 08:03:08;;;;;;;5.00;3.17;;;11.20;99.90;;;;;;5044967;28;20484;-68
2023/10/17 08:05:44;;;;;;;11.53;4.47;;;11.30;99.90;;;;;;5033843;28;20899;-69
2023/10/17 08:08:14;;;;;;;5.10;3.33;;;11.30;99.90;;;;;;5037748;28;20448;-67
2023/10/17 08:10:45;;;;;;;7.23;4.57;;;11.40;99.90;;;;;;5045472;28;20500;-68
2023/10/17 08:13:13;;;;;;;7.90;3.93;;;11.50;99.90;;;;;;5042070;28;20431;-69
2023/10/17 08:15:46;;;;;;;4.30;2.90;;;11.50;99.90;;;;;;5040454;28;20800;-69
2023/10/17 08:18:15;;;;;;;9.10;3.20;;;11.60;99.90;;;;;;5033896;28;20432;-69
2023/10/17 08:23:27;;;;;;;4.40;3.30;;;11.70;99.90;;;;;;5032108;28;20836;-68
2023/10/17 08:25:59;;;;;;;4.90;3.30;;;11.70;99.90;;;;;;5033394;28;20920;-66
2023/10/17 08:28:37;;;;;;;8.93;5.07;;;11.80;99.90;;;;;;5034074;28;20498;-68
2023/10/17 08:31:17;;;;;;;4.10;3.10;;;11.90;99.90;;;;;;5046857;28;20435;-67
2023/10/17 08:33:47;;;;;;;8.67;3.40;;;12.00;99.90;;;;;;5035036;28;20447;-67
2023/10/17 08:36:14;;;;;;;7.20;3.57;;;12.10;99.90;;;;;;5035524;28;20447;-68
2023/10/17 08:38:40;;;;;;;5.10;3.60;;;12.20;99.90;;;;;;5041853;28;20971;-68
2023/10/17 08:41:08;;;;;;;4.50;3.20;;;12.30;99.90;;;;;;5043853;28;20482;-70
2023/10/17 08:43:36;;;;;;;8.40;3.70;;;12.40;99.90;;;;;;5041393;28;20483;-71
2023/10/17 08:46:07;;;;;;;5.93;3.30;;;12.50;99.90;;;;;;5050122;28;20802;-69
2023/10/17 08:48:37;;;;;;;3.47;2.70;;;12.60;99.90;;;;;;5053502;28;20526;-71
2023/10/17 08:51:07;;;;;;;6.97;3.23;;;12.70;99.90;;;;;;5040620;28;20454;-70
2023/10/17 08:53:35;;;;;;;3.07;2.77;;;12.90;99.90;;;;;;5033286;28;20435;-65
2023/10/17 08:56:04;;;;;;;7.40;3.00;;;12.90;99.90;;;;;;5035970;28;20463;-70
2023/10/17 08:58:33;;;;;;;4.07;3.00;;;13.00;99.90;;;;;;5033591;28;20538;-69
2023/10/17 09:01:11;;;;;;;3.50;2.47;;;13.00;99.90;;;;;;5040934;28;20525;-61
2023/10/17 09:03:46;;;;;;;3.83;2.03;;;13.10;99.90;;;;;;5055918;28;20475;-59
2023/10/17 09:06:32;;;;;;;2.17;1.70;;;13.20;99.90;;;;;;5055816;28;20582;-64
2023/10/17 09:12:03;;;;;;;6.83;2.90;;;13.60;99.90;;;;;;5055654;28;20428;-55
2023/10/17 09:14:35;;;;;;;4.40;3.30;;;13.80;99.90;;;;;;5056225;28;20480;-61
2023/10/17 09:17:16;;;;;;;5.00;3.20;;;14.00;99.90;;;;;;5064683;28;20440;-62
2023/10/17 09:19:50;;;;;;;6.33;3.53;;;14.00;99.90;;;;;;5062013;28;20642;-54
2023/10/17 09:22:36;;;;;;;3.83;3.10;;;14.10;99.90;;;;;;5070622;28;20442;-61
2023/10/17 09:25:19;;;;;;;2.77;2.03;;;14.20;99.90;;;;;;5060510;28;20435;-64
2023/10/17 09:27:50;;;;;;;4.30;2.00;;;14.30;99.90;;;;;;5066977;28;20419;-57
2023/10/17 09:30:19;;;;;;;4.30;1.77;;;14.60;99.90;;;;;;5065699;28;20459;-57
2023/10/17 09:32:48;;;;;;;6.20;2.50;;;15.10;99.90;;;;;;5047563;28;20460;-68
2023/10/17 09:35:18;;;;;;;3.53;2.40;;;15.50;99.90;;;;;;5054194;28;20470;-71
2023/10/17 09:37:50;;;;;;;4.97;2.60;;;15.90;99.90;;;;;;5042033;28;20947;-72
2023/10/17 09:40:22;;;;;;;3.30;2.30;;;16.40;99.90;;;;;;5036387;28;20458;-70
2023/10/17 09:42:49;;;;;;;5.53;1.90;;;17.00;99.50;;;;;;5036739;28;20475;-67
2023/10/17 09:45:17;;;;;;;4.43;1.93;;;17.20;95.80;;;;;;5037956;28;20444;-68
2023/10/17 09:47:45;;;;;;;2.83;2.17;;;17.40;96.00;;;;;;5036042;28;20972;-69
2023/10/17 09:50:16;;;;;;;2.07;1.80;;;18.10;91.90;;;;;;5035120;28;20980;-63
2023/10/17 09:52:48;;;;;;;5.77;2.40;;;19.10;89.00;;;;;;5036395;28;20474;-70
2023/10/17 09:55:18;;;;;;;8.97;2.80;;;19.60;82.20;;;;;;5035585;28;20448;-68
2023/10/17 09:57:51;;;;;;;3.30;1.90;;;19.30;81.60;;;;;;5036525;28;20979;-67
2023/10/17 10:00:29;;;;;;;9.07;1.80;;;18.90;79.90;;;;;;5036397;28;20460;-69
2023/10/17 10:02:59;;;;;;;5.60;1.50;;;18.50;76.60;;;;;;5036322;28;20597;-69
2023/10/17 10:05:29;;;;;;;1.70;1.40;;;18.50;77.20;;;;;;5037226;28;20452;-66
2023/10/17 10:08:02;;;;;;;5.30;1.80;;;19.30;77.50;;;;;;5035973;28;20885;-72
2023/10/17 10:10:52;;;;;;;2.10;1.80;;;20.40;74.70;;;;;;5035949;28;20957;-68
2023/10/17 10:13:20;;;;;;;1.20;1.00;;;21.10;69.20;;;;;;5030847;28;20490;-71
2023/10/17 10:15:55;;;;;;;5.40;1.23;;;20.40;59.40;;;;;;5043045;28;20470;-67
2023/10/17 10:18:57;;;;;;;2.03;1.10;;;19.40;60.00;;;;;;5044491;28;20428;-68
2023/10/17 10:21:54;;;;;;;2.10;1.27;;;18.30;63.00;;;;;;5046134;28;20545;-69
2023/10/17 10:24:27;;;;;;;4.10;2.00;;;17.30;69.00;;;;;;5026297;28;20468;-70
2023/10/17 10:27:24;;;;;;;2.73;1.60;;;16.60;73.00;;;;;;5041343;28;20571;-72
2023/10/17 10:29:56;;;;;;;1.83;1.40;;;16.00;77.90;;;;;;5037125;28;20916;-70
2023/10/17 10:32:30;;;;;;;2.10;1.60;;;15.50;83.80;;;;;;5034460;28;20472;-70
2023/10/17 10:34:57;;;;;;;8.00;3.10;;;15.10;87.90;;;;;;5038022;28;20510;-72
2023/10/17 10:37:25;;;;;;;3.73;1.97;;;14.70;92.20;;;;;;5039395;28;20467;-70
2023/10/17 10:40:17;;;;;;;4.50;2.00;;;14.50;93.40;;;;;;5035361;28;20444;-71
2023/10/17 10:42:48;;;;;;;1.83;1.30;;;14.20;95.10;;;;;;5035471;28;20519;-70
2023/10/17 10:45:31;;;;;;;4.13;2.03;;;14.00;97.30;;;;;;5035082;28;20925;-70
2023/10/17 10:47:59;;;;;;;4.17;1.60;;;13.90;99.60;;;;;;5019564;28;20738;-71
2023/10/17 10:50:27;;;;;;;3.77;1.80;;;13.70;99.90;;;;;;5038309;28;20834;-68
2023/10/17 10:52:56;;;;;;;2.93;1.70;;;13.50;99.90;;;;;;5045910;28;20432;-69
2023/10/17 10:55:26;;;;;;;2.90;1.87;;;13.30;99.90;;;;;;5034391;28;20504;-71
2023/10/17 10:57:53;;;;;;;3.13;1.50;;;13.20;99.90;;;;;;5035600;28;20542;-71
2023/10/17 11:00:20;;;;;;;5.43;1.87;;;13.10;99.90;;;;;;5032269;28;20947;-71
2023/10/17 11:02:48;;;;;;;2.30;1.57;;;13.00;99.90;;;;;;5035204;28;20516;-66
2023/10/17 11:05:15;;;;;;;1.40;1.20;;;13.00;99.90;;;;;;5034806;28;20766;-68
2023/10/17 11:07:44;;;;;;;2.30;1.53;;;13.00;99.90;;;;;;5034712;28;20941;-71
2023/10/17 11:10:13;;;;;;;1.50;1.07;;;12.90;99.90;;;;;;5034872;28;20915;-70
2023/10/17 11:12:52;;;;;;;1.93;1.00;;;12.90;99.90;;;;;;5034730;28;20525;-70
2023/10/17 11:15:22;;;;;;;1.47;1.10;;;12.90;99.90;;;;;;5034989;28;20432;-69
2023/10/17 11:17:49;;;;;;;2.10;1.00;;;12.90;99.90;;;;;;5035219;28;20459;-66
2023/10/17 11:20:18;;;;;;;2.47;1.53;;;12.80;99.90;;;;;;5034904;28;20432;-68
2023/10/17 11:22:46;;;;;;;4.23;1.20;;;12.80;99.90;;;;;;5034813;28;20452;-67
2023/10/17 11:25:21;;;;;;;1.77;1.10;;;12.70;99.50;;;;;;5034631;28;20440;-70
2023/10/17 11:27:56;;;;;;;1.53;1.10;;;12.70;99.90;;;;;;5034635;28;20442;-70
2023/10/17 11:30:32;;;;;;;1.67;1.20;;;12.60;99.70;;;;;;5034338;28;20479;-67
2023/10/17 11:33:10;;;;;;;1.30;1.00;;;12.60;99.90;;;;;;5033653;28;20432;-70
2023/10/17 11:35:37;;;;;;;1.83;1.07;;;12.70;99.70;;;;;;5029492;28;20463;-71
2023/10/17 11:38:07;;;;;;;1.60;1.10;;;12.70;99.30;;;;;;5034381;28;20452;-73
2023/10/17 11:40:42;;;;;;;1.40;0.93;;;12.80;99.00;;;;;;5034322;28;20483;-69
2023/10/17 11:43:18;;;;;;;2.70;1.10;;;12.80;99.00;;;;;;5031921;28;20476;-71
2023/10/17 11:45:45;;;;;;;1.50;1.10;;;12.80;98.80;;;;;;5018438;28;20436;-71
2023/10/17 11:48:27;;;;;;;2.87;1.10;;;12.80;98.50;;;;;;5034209;28;20432;-70
2023/10/17 11:51:13;;;;;;;1.57;1.20;;;12.90;98.40;;;;;;5023035;28;20449;-63
2023/10/17 11:54:07;;;;;;;2.23;1.53;;;12.90;98.50;;;;;;5022747;28;20471;-67
2023/10/17 11:56:35;;;;;;;2.07;1.20;;;12.90;98.60;;;;;;5028597;28;20465;-68
2023/10/17 11:59:04;;;;;;;2.03;1.37;;;12.90;99.60;;;;;;5024888;28;20483;-65
2023/10/17 12:01:33;;;;;;;1.47;1.13;;;12.90;99.30;;;;;;5032681;28;20464;-68
2023/10/17 12:04:06;;;;;;;1.97;1.10;;;12.80;99.80;;;;;;5019337;28;20488;-70
2023/10/17 12:06:33;;;;;;;1.97;0.90;;;12.80;99.90;;;;;;5028871;28;20467;-71
2023/10/17 12:09:02;;;;;;;2.47;1.07;;;12.80;99.80;;;;;;5020249;28;20440;-72
2023/10/17 12:11:29;;;;;;;2.60;1.20;;;12.90;99.40;;;;;;5033935;28;20444;-70
2023/10/17 12:13:57;;;;;;;2.53;2.17;;;12.90;99.10;;;;;;5027415;28;20445;-63
2023/10/17 12:16:25;;;;;;;3.10;1.33;;;13.00;99.10;;;;;;5044536;28;20550;-67
2023/10/17 12:18:53;;;;;;;1.77;1.17;;;13.00;98.00;;;;;;5034980;28;20503;-66
2023/10/17 12:21:20;;;;;;;2.47;1.70;;;13.00;98.10;;;;;;5048227;28;20479;-70
2023/10/17 12:23:47;;;;;;;11.37;1.27;;;13.10;98.10;;;;;;5040609;28;20510;-68
2023/10/17 12:26:19;;;;;;;3.53;1.47;;;13.10;97.20;;;;;;5041670;28;20750;-65
2023/10/17 12:28:46;;;;;;;2.20;1.20;;;13.10;96.80;;;;;;5036167;28;20427;-68
2023/10/17 12:31:16;;;;;;;1.27;1.10;;;13.10;96.40;;;;;;5038410;28;20824;-68
2023/10/17 12:33:45;;;;;;;1.97;1.03;;;13.10;96.60;;;;;;5033642;28;20456;-68
2023/10/17 12:36:13;;;;;;;1.70;1.00;;;13.10;96.50;;;;;;5034096;28;20527;-67
2023/10/17 12:38:40;;;;;;;1.77;1.10;;;13.10;96.20;;;;;;5044171;28;20495;-68
2023/10/17 12:41:07;;;;;;;9.30;3.77;;;13.10;96.50;;;;;;5034536;28;20468;-62
2023/10/17 12:43:35;;;;;;;3.40;1.90;;;13.00;96.70;;;;;;5033277;28;20534;-71
2023/10/17 12:46:02;;;;;;;2.40;1.13;;;13.00;97.10;;;;;;5033961;28;20444;-68
2023/10/17 12:48:29;;;;;;;1.50;1.10;;;13.10;97.20;;;;;;5033657;28;20454;-66
2023/10/17 12:50:58;;;;;;;3.17;1.20;;;13.00;96.90;;;;;;5033178;28;20960;-68
2023/10/17 12:53:24;;;;;;;2.23;1.40;;;13.10;97.80;;;;;;5040359;28;20505;-64
2023/10/17 12:55:51;;;;;;;5.20;1.10;;;13.00;98.60;;;;;;5044094;28;20551;-66
2023/10/17 12:58:22;;;;;;;4.17;1.30;;;13.00;97.60;;;;;;5040513;28;20950;-68
2023/10/17 13:00:52;;;;;;;3.23;1.17;;;12.90;98.40;;;;;;5040607;28;20527;-69
2023/10/17 13:03:22;;;;;;;2.97;1.17;;;13.00;98.60;;;;;;5037434;28;20450;-70
2023/10/17 13:05:50;;;;;;;4.27;1.30;;;13.00;98.10;;;;;;5037041;28;20462;-72
2023/10/17 13:08:18;;;;;;;1.83;1.30;;;13.10;97.50;;;;;;5023641;28;20940;-71
2023/10/17 13:10:50;;;;;;;4.03;1.43;;;13.10;97.30;;;;;;5037084;28;20531;-70
2023/10/17 13:13:17;;;;;;;1.53;0.97;;;13.10;97.10;;;;;;5027847;28;20947;-70
2023/10/17 13:15:44;;;;;;;1.27;1.10;;;13.10;97.20;;;;;;5030909;28;20436;-68
2023/10/17 13:18:13;;;;;;;1.93;1.10;;;13.10;97.10;;;;;;5043835;28;21072;-69
2023/10/17 13:20:46;;;;;;;1.50;1.03;;;13.10;98.00;;;;;;5040958;28;20460;-70
2023/10/17 13:23:15;;;;;;;1.30;1.00;;;13.20;96.70;;;;;;5048142;28;20435;-73
2023/10/17 13:25:44;;;;;;;1.60;1.00;;;13.20;96.80;;;;;;5036896;28;20894;-69
2023/10/17 13:28:12;;;;;;;1.47;0.80;;;13.20;97.10;;;;;;5039998;28;20471;-75
2023/10/17 13:30:39;;;;;;;3.23;1.70;;;13.10;97.10;;;;;;5031711;28;20468;-64
2023/10/17 13:33:06;;;;;;;3.50;2.20;;;13.20;96.70;;;;;;5036810;28;20773;-66
2023/10/17 13:35:37;;;;;;;3.00;1.50;;;13.20;97.40;;;;;;5036724;28;20840;-67
2023/10/17 13:38:04;;;;;;;2.00;1.00;;;13.20;97.80;;;;;;5036445;28;20909;-69
2023/10/17 13:40:32;;;;;;;4.93;1.30;;;13.20;98.20;;;;;;5036553;28;20529;-73
2023/10/17 13:43:01;;;;;;;3.53;1.30;;;13.20;97.50;;;;;;5036125;28;20463;-67
2023/10/17 13:45:28;;;;;;;2.90;1.20;;;13.20;97.80;;;;;;5047327;28;20799;-71
2023/10/17 13:47:55;;;;;;;3.00;1.53;;;13.30;98.10;;;;;;5048004;28;20469;-71
2023/10/17 13:50:23;;;;;;;1.73;1.30;;;13.30;98.40;;;;;;5048668;28;20566;-71
2023/10/17 13:52:52;;;;;;;4.80;1.53;;;13.30;98.50;;;;;;5036577;28;21129;-73
2023/10/17 13:55:25;;;;;;;2.30;1.20;;;13.30;98.70;;;;;;5035229;28;20472;-74
2023/10/17 13:58:01;;;;;;;1.67;1.20;;;13.30;98.70;;;;;;5041385;28;20487;-73
2023/10/17 14:00:43;;;;;;;2.67;1.50;;;13.50;98.10;;;;;;5035775;28;20502;-72
2023/10/17 14:03:12;;;;;;;2.20;1.00;;;13.60;97.20;;;;;;5040568;28;20960;-72
2023/10/17 14:05:42;;;;;;;1.50;1.17;;;13.70;96.60;;;;;;5034706;28;21389;-72
2023/10/17 14:08:12;;;;;;;2.47;1.50;;;13.70;96.70;;;;;;5036514;28;20462;-69
2023/10/17 14:10:43;;;;;;;1.50;1.40;;;13.70;96.50;;;;;;5020202;28;20479;-69
2023/10/17 14:13:12;;;;;;;4.47;1.67;;;13.70;97.30;;;;;;5036824;28;20440;-71
2023/10/17 14:15:40;;;;;;;1.30;0.97;;;13.60;96.90;;;;;;5036756;28;20502;-70
2023/10/17 14:18:13;;;;;;;2.40;1.67;;;13.60;96.40;;;;;;5048645;28;20565;-72
2023/10/17 14:20:53;;;;;;;2.83;1.10;;;13.50;96.00;;;;;;5039142;28;20499;-74
2023/10/17 14:23:26;;;;;;;2.00;1.23;;;13.50;96.20;;;;;;5039693;28;20525;-72
2023/10/17 14:26:07;;;;;;;2.37;1.27;;;13.40;96.40;;;;;;5035766;28;20468;-67
2023/10/17 14:28:34;;;;;;;2.20;1.47;;;13.40;95.70;;;;;;5035988;28;20495;-66
2023/10/17 14:31:05;;;;;;;2.60;1.40;;;13.40;95.80;;;;;;5038246;28;20498;-67
2023/10/17 14:33:32;;;;;;;2.17;1.30;;;13.40;96.60;;;;;;5043110;28;20452;-67
2023/10/17 14:36:02;;;;;;;2.40;1.10;;;13.40;97.40;;;;;;5040799;28;20551;-64
2023/10/17 14:38:29;;;;;;;4.27;1.30;;;13.30;98.70;;;;;;5041613;28;20459;-68